createdAt,value
2018-02-08T00:01:56.383Z,1.00
2018-02-08T00:04:24.712Z,0.90
2018-02-08T00:06:52.225Z,0.90
2018-02-08T00:09:20.565Z,0.80
2018-02-08T00:11:48.873Z,0.80
2018-02-08T00:14:17.214Z,0.80
2018-02-08T00:16:44.753Z,0.90
2018-02-08T00:19:12.311Z,0.90
2018-02-08T00:21:39.832Z,0.90
2018-02-08T00:24:07.368Z,0.80
2018-02-08T00:26:34.913Z,0.80
2018-02-08T00:29:02.453Z,0.90
2018-02-08T00:31:30.035Z,0.90
2018-02-08T00:33:57.566Z,0.80
2018-02-08T00:36:25.099Z,0.70
2018-02-08T00:38:52.637Z,0.70
2018-02-08T00:41:20.946Z,0.80
2018-02-08T00:43:48.482Z,0.80
2018-02-08T00:46:16.818Z,0.90
2018-02-08T00:48:44.384Z,0.90
2018-02-08T00:51:11.930Z,0.80
2018-02-08T00:53:39.510Z,0.80
2018-02-08T00:56:07.046Z,0.80
2018-02-08T01:01:08.591Z,0.80
2018-02-08T01:03:36.146Z,0.80
2018-02-08T01:06:03.720Z,0.80
2018-02-08T01:08:31.256Z,0.70
2018-02-08T01:10:58.808Z,0.60
2018-02-08T01:13:27.101Z,0.50
2018-02-08T01:15:54.639Z,0.60
2018-02-08T01:18:22.945Z,0.50
2018-02-08T01:20:50.497Z,0.50
2018-02-08T01:23:18.027Z,0.60
2018-02-08T01:25:46.350Z,0.60
2018-02-08T01:28:13.889Z,0.60
2018-02-08T01:30:41.503Z,0.60
2018-02-08T01:33:09.862Z,0.70
2018-02-08T01:35:37.393Z,0.70
2018-02-08T01:38:04.922Z,0.70
2018-02-08T01:40:32.470Z,0.70
2018-02-08T01:42:59.991Z,0.70
2018-02-08T01:45:27.534Z,0.70
2018-02-08T01:47:55.076Z,0.70
2018-02-08T01:50:22.643Z,0.70
2018-02-08T01:52:50.174Z,0.70
2018-02-08T01:55:17.693Z,0.70
2018-02-08T01:57:45.285Z,0.70
2018-02-08T02:02:46.959Z,0.70
2018-02-08T02:05:15.278Z,0.70
2018-02-08T02:07:42.829Z,0.70
2018-02-08T02:10:10.390Z,0.70
2018-02-08T02:12:37.974Z,0.70
2018-02-08T02:15:05.520Z,0.80
2018-02-08T02:17:33.062Z,0.80
2018-02-08T02:20:00.608Z,0.80
2018-02-08T02:22:28.924Z,0.80
2018-02-08T02:24:56.465Z,0.80
2018-02-08T02:27:24.032Z,0.80
2018-02-08T02:29:51.578Z,0.90
2018-02-08T02:32:19.919Z,0.90
2018-02-08T02:34:47.425Z,0.80
2018-02-08T02:37:15.046Z,0.90
2018-02-08T02:39:42.564Z,0.90
2018-02-08T02:42:10.112Z,1.00
2018-02-08T02:44:37.647Z,1.00
2018-02-08T02:47:05.235Z,0.90
2018-02-08T02:49:32.752Z,0.80
2018-02-08T02:52:00.280Z,0.80
2018-02-08T02:54:27.788Z,0.90
2018-02-08T02:56:56.103Z,0.90
2018-02-08T02:59:23.621Z,0.80
2018-02-08T03:01:51.928Z,1.00
2018-02-08T03:04:19.453Z,0.90
2018-02-08T03:06:47.788Z,1.00
2018-02-08T03:09:15.333Z,1.00
2018-02-08T03:11:42.844Z,1.00
2018-02-08T03:14:11.166Z,0.90
2018-02-08T03:16:38.692Z,0.90
2018-02-08T03:19:06.984Z,0.90
2018-02-08T03:21:34.524Z,0.80
2018-02-08T03:24:02.062Z,0.80
2018-02-08T03:26:30.395Z,0.70
2018-02-08T03:28:57.973Z,0.70
2018-02-08T03:31:26.113Z,0.70
2018-02-08T03:33:54.394Z,0.70
2018-02-08T03:36:21.902Z,0.70
2018-02-08T03:38:49.437Z,0.60
2018-02-08T03:41:16.975Z,0.70
2018-02-08T03:43:44.527Z,0.60
2018-02-08T03:46:12.068Z,0.60
2018-02-08T03:48:40.389Z,0.50
2018-02-08T03:51:07.918Z,0.50
2018-02-08T03:53:35.458Z,0.50
2018-02-08T03:56:03.809Z,0.60
2018-02-08T03:58:31.330Z,0.60
2018-02-08T04:00:58.862Z,0.60
2018-02-08T04:03:27.154Z,0.70
2018-02-08T04:05:54.688Z,0.70
2018-02-08T04:08:23.026Z,0.80
2018-02-08T04:10:51.304Z,0.90
2018-02-08T04:13:18.825Z,0.90
2018-02-08T04:15:46.343Z,0.80
2018-02-08T04:18:14.630Z,0.70
2018-02-08T04:20:42.932Z,0.60
2018-02-08T04:23:10.576Z,0.60
2018-02-08T04:25:38.917Z,0.60
2018-02-08T04:28:06.450Z,0.50
2018-02-08T04:30:33.991Z,0.50
2018-02-08T04:33:01.505Z,0.40
2018-02-08T04:35:29.049Z,0.30
2018-02-08T04:37:56.630Z,0.40
2018-02-08T04:40:36.017Z,0.40
2018-02-08T04:43:15.606Z,0.50
2018-02-08T04:45:54.985Z,0.50
2018-02-08T04:48:22.526Z,0.50
2018-02-08T04:50:50.059Z,0.50
2018-02-08T04:53:17.613Z,0.40
2018-02-08T04:55:45.165Z,0.40
2018-02-08T04:58:12.745Z,0.40
2018-02-08T05:00:40.334Z,0.40
2018-02-08T05:03:08.622Z,0.50
2018-02-08T05:05:36.190Z,0.50
2018-02-08T05:08:03.757Z,0.50
2018-02-08T05:10:31.284Z,0.50
2018-02-08T05:12:59.620Z,0.60
2018-02-08T05:15:27.153Z,0.60
2018-02-08T05:17:54.672Z,0.60
2018-02-08T05:20:23.012Z,0.60
2018-02-08T05:22:50.561Z,0.60
2018-02-08T05:25:18.114Z,0.50
2018-02-08T05:27:45.637Z,0.50
2018-02-08T05:30:13.952Z,0.40
2018-02-08T05:32:41.491Z,0.40
2018-02-08T05:35:09.030Z,0.50
2018-02-08T05:37:37.306Z,0.80
2018-02-08T05:40:05.598Z,0.80
2018-02-08T05:42:33.137Z,0.80
2018-02-08T05:45:03.979Z,0.80
2018-02-08T05:47:32.281Z,0.80
2018-02-08T05:49:59.815Z,0.80
2018-02-08T05:52:28.083Z,0.70
2018-02-08T05:54:55.651Z,0.70
2018-02-08T05:57:23.942Z,0.60
2018-02-08T05:59:52.226Z,0.60
2018-02-08T06:02:19.930Z,0.60
2018-02-08T06:04:47.481Z,0.70
2018-02-08T06:07:15.022Z,0.70
2018-02-08T06:09:42.601Z,0.70
2018-02-08T06:12:10.104Z,0.60
2018-02-08T06:14:38.385Z,0.50
2018-02-08T06:17:06.737Z,0.50
2018-02-08T06:19:34.252Z,0.50
2018-02-08T06:22:01.755Z,0.60
2018-02-08T06:24:30.058Z,0.60
2018-02-08T06:26:58.359Z,0.60
2018-02-08T06:29:26.094Z,0.60
2018-02-08T06:31:53.687Z,0.70
2018-02-08T06:34:21.188Z,0.60
2018-02-08T06:36:49.073Z,0.50
2018-02-08T06:39:16.536Z,0.40
2018-02-08T06:41:45.377Z,0.40
2018-02-08T06:44:12.858Z,0.40
2018-02-08T06:46:40.531Z,0.30
2018-02-08T06:49:08.007Z,0.40
2018-02-08T06:51:36.285Z,0.40
2018-02-08T06:54:03.805Z,0.40
2018-02-08T06:56:31.341Z,0.40
2018-02-08T06:58:58.848Z,0.40
2018-02-08T07:01:27.150Z,0.30
2018-02-08T07:03:54.612Z,0.40
2018-02-08T07:06:22.163Z,0.40
2018-02-08T07:08:49.701Z,0.50
2018-02-08T07:11:17.214Z,0.50
2018-02-08T07:13:44.734Z,0.60
2018-02-08T07:16:12.285Z,0.60
2018-02-08T07:18:40.600Z,0.90
2018-02-08T07:21:08.137Z,0.90
2018-02-08T07:23:36.420Z,0.90
2018-02-08T07:26:03.954Z,0.80
2018-02-08T07:28:32.261Z,0.80
2018-02-08T07:30:59.799Z,0.90
2018-02-08T07:33:28.122Z,0.80
2018-02-08T07:35:55.650Z,0.80
2018-02-08T07:38:23.201Z,0.80
2018-02-08T07:40:50.742Z,0.80
2018-02-08T07:43:19.044Z,0.80
2018-02-08T07:45:46.598Z,0.80
2018-02-08T07:48:14.189Z,0.90
2018-02-08T07:50:41.733Z,0.90
2018-02-08T07:53:09.284Z,0.90
2018-02-08T07:55:36.806Z,1.00
2018-02-08T07:58:04.365Z,1.00
2018-02-08T08:00:31.906Z,1.00
2018-02-08T08:02:59.452Z,1.00
2018-02-08T08:05:27.006Z,1.00
2018-02-08T08:07:54.592Z,1.10
2018-02-08T08:10:22.120Z,1.10
2018-02-08T08:12:49.669Z,1.10
2018-02-08T08:15:17.217Z,1.10
2018-02-08T08:17:44.779Z,1.10
2018-02-08T08:20:12.393Z,1.20
2018-02-08T08:22:39.937Z,1.20
2018-02-08T08:25:07.457Z,1.20
2018-02-08T08:27:35.025Z,1.20
2018-02-08T08:30:02.620Z,1.10
2018-02-08T08:32:30.118Z,1.10
2018-02-08T08:34:57.682Z,1.10
2018-02-08T08:37:25.975Z,1.20
2018-02-08T08:39:53.566Z,1.20
2018-02-08T08:42:21.130Z,1.30
2018-02-08T08:44:48.676Z,1.30
2018-02-08T08:47:16.235Z,1.40
2018-02-08T08:49:43.749Z,1.30
2018-02-08T08:52:11.304Z,1.40
2018-02-08T08:54:38.825Z,1.60
2018-02-08T08:57:06.473Z,1.70
2018-02-08T08:59:34.027Z,1.80
2018-02-08T09:02:01.605Z,1.90
2018-02-08T09:04:29.203Z,2.00
2018-02-08T09:06:56.736Z,2.10
2018-02-08T09:09:24.301Z,2.30
2018-02-08T09:11:51.877Z,2.40
2018-02-08T09:14:19.734Z,2.50
2018-02-08T09:16:47.266Z,2.90
2018-02-08T09:19:15.721Z,3.10
2018-02-08T09:21:43.262Z,3.30
2018-02-08T09:24:11.549Z,3.20
2018-02-08T09:26:39.070Z,3.20
2018-02-08T09:29:06.632Z,3.20
2018-02-08T09:31:34.216Z,3.40
2018-02-08T09:34:02.565Z,3.40
2018-02-08T09:36:30.094Z,3.40
2018-02-08T09:38:58.358Z,3.90
2018-02-08T09:41:25.977Z,3.90
2018-02-08T09:43:53.462Z,3.90
2018-02-08T09:46:21.744Z,3.80
2018-02-08T09:48:49.290Z,3.80
2018-02-08T09:51:17.551Z,3.90
2018-02-08T09:53:45.162Z,3.80
2018-02-08T09:56:12.760Z,3.60
2018-02-08T09:58:40.826Z,3.50
2018-02-08T10:01:08.345Z,3.30
2018-02-08T10:03:35.850Z,3.30
2018-02-08T10:06:03.364Z,3.10
2018-02-08T10:08:30.902Z,3.00
2018-02-08T10:10:58.446Z,3.10
2018-02-08T10:13:26.712Z,3.40
2018-02-08T10:15:54.218Z,3.50
2018-02-08T10:18:21.694Z,3.50
2018-02-08T10:20:49.192Z,3.70
2018-02-08T10:23:17.473Z,3.70
2018-02-08T10:25:45.015Z,3.70
2018-02-08T10:28:13.313Z,3.60
2018-02-08T10:30:41.613Z,3.50
2018-02-08T10:33:09.132Z,3.50
2018-02-08T10:35:37.466Z,3.40
2018-02-08T10:38:04.962Z,3.40
2018-02-08T10:40:34.568Z,3.40
2018-02-08T10:43:02.132Z,3.50
2018-02-08T10:45:29.675Z,3.60
2018-02-08T10:47:57.154Z,3.70
2018-02-08T10:50:24.716Z,3.70
2018-02-08T10:52:53.013Z,3.70
2018-02-08T10:55:20.544Z,3.70
2018-02-08T10:57:48.061Z,3.90
2018-02-08T11:00:15.620Z,4.20
2018-02-08T11:02:43.108Z,4.40
2018-02-08T11:05:10.598Z,4.60
2018-02-08T11:07:38.971Z,4.50
2018-02-08T11:10:07.196Z,4.60
2018-02-08T11:12:34.708Z,4.60
2018-02-08T11:15:02.980Z,4.70
2018-02-08T11:17:31.306Z,4.70
2018-02-08T11:19:58.809Z,4.70
2018-02-08T11:22:27.169Z,5.10
2018-02-08T11:24:54.773Z,5.10
2018-02-08T11:27:23.406Z,5.20
2018-02-08T11:29:54.969Z,5.30
2018-02-08T11:32:22.553Z,5.60
2018-02-08T11:34:50.868Z,6.00
2018-02-08T11:37:18.449Z,5.90
2018-02-08T11:39:45.953Z,5.60
2018-02-08T11:42:14.313Z,4.80
2018-02-08T11:44:41.849Z,4.80
2018-02-08T11:47:09.393Z,4.70
2018-02-08T11:49:36.913Z,4.40
2018-02-08T11:52:04.415Z,4.40
2018-02-08T11:54:31.965Z,4.40
2018-02-08T11:56:59.494Z,4.30
2018-02-08T11:59:27.845Z,4.40
2018-02-08T12:01:55.384Z,4.40
2018-02-08T12:06:57.660Z,4.40
2018-02-08T12:09:25.194Z,4.20
2018-02-08T12:11:52.753Z,4.10
2018-02-08T12:14:20.273Z,4.10
2018-02-08T12:16:47.776Z,4.20
2018-02-08T12:19:16.151Z,4.00
2018-02-08T12:21:43.737Z,4.00
2018-02-08T12:24:11.247Z,4.10
2018-02-08T12:26:39.467Z,4.30
2018-02-08T12:29:07.123Z,4.40
2018-02-08T12:31:34.748Z,4.40
2018-02-08T12:34:03.007Z,4.50
2018-02-08T12:36:30.469Z,4.50
2018-02-08T12:38:58.722Z,4.50
2018-02-08T12:41:26.214Z,4.50
2018-02-08T12:43:54.474Z,4.50
2018-02-08T12:46:21.937Z,4.50
2018-02-08T12:48:50.194Z,4.50
2018-02-08T12:51:17.683Z,4.50
2018-02-08T12:53:45.218Z,4.50
2018-02-08T12:56:12.709Z,4.50
2018-02-08T12:58:40.225Z,4.40
2018-02-08T13:01:07.737Z,4.30
2018-02-08T13:03:35.270Z,4.30
2018-02-08T13:06:03.575Z,4.00
2018-02-08T13:08:31.082Z,4.00
2018-02-08T13:10:58.608Z,4.10
2018-02-08T13:13:26.154Z,4.00
2018-02-08T13:15:53.686Z,4.10
2018-02-08T13:18:21.962Z,4.00
2018-02-08T13:20:50.228Z,4.00
2018-02-08T13:23:18.571Z,3.90
2018-02-08T13:25:46.133Z,3.90
2018-02-08T13:28:13.673Z,3.90
2018-02-08T13:30:41.197Z,3.90
2018-02-08T13:33:08.744Z,3.90
2018-02-08T13:35:36.310Z,3.80
2018-02-08T13:38:04.590Z,3.80
2018-02-08T13:40:33.676Z,3.80
2018-02-08T13:43:01.989Z,3.80
2018-02-08T13:45:32.418Z,3.80
2018-02-08T13:47:59.956Z,3.80
2018-02-08T14:14:49.409Z,3.90
2018-02-08T14:17:16.977Z,3.80
2018-02-08T14:19:44.800Z,3.90
2018-02-08T14:22:12.355Z,3.80
2018-02-08T14:24:39.933Z,3.80
2018-02-08T14:27:08.473Z,3.80
2018-02-08T14:29:36.068Z,3.80
2018-02-08T14:32:04.478Z,3.80
2018-02-08T14:34:32.014Z,3.80
2018-02-08T14:37:00.376Z,3.80
2018-02-08T14:39:27.913Z,3.80
2018-02-08T14:42:15.684Z,3.80
2018-02-08T14:44:55.045Z,3.60
2018-02-08T14:47:23.306Z,3.70
2018-02-08T14:49:51.655Z,3.70
2018-02-08T14:52:19.218Z,3.70
2018-02-08T14:54:47.517Z,3.70
2018-02-08T14:57:15.847Z,3.60
2018-02-08T14:59:43.380Z,3.60
2018-02-08T15:02:10.950Z,3.60
2018-02-08T15:04:38.491Z,3.60
2018-02-08T15:07:06.044Z,3.50
2018-02-08T15:09:33.631Z,3.50
2018-02-08T15:12:01.165Z,3.50
2018-02-08T15:14:28.711Z,3.50
2018-02-08T15:16:57.030Z,3.50
2018-02-08T15:19:24.631Z,3.50
2018-02-08T15:21:52.976Z,3.60
2018-02-08T15:24:20.537Z,3.60
2018-02-08T15:26:48.100Z,3.50
2018-02-08T15:29:16.422Z,3.50
2018-02-08T15:31:44.013Z,3.50
2018-02-08T15:34:11.551Z,3.50
2018-02-08T15:36:39.109Z,3.60
2018-02-08T15:39:06.645Z,3.60
2018-02-08T15:41:34.209Z,3.60
2018-02-08T15:44:02.515Z,3.50
2018-02-08T15:46:30.077Z,3.50
2018-02-08T15:48:57.582Z,3.50
2018-02-08T15:51:25.128Z,3.50
2018-02-08T15:53:52.631Z,3.40
2018-02-08T15:56:20.981Z,3.20
2018-02-08T15:58:48.517Z,3.20
2018-02-08T16:01:26.778Z,3.20
2018-02-08T16:03:54.325Z,3.20
2018-02-08T16:06:22.641Z,3.20
2018-02-08T16:08:50.161Z,3.20
2018-02-08T16:11:17.690Z,3.30
2018-02-08T16:13:45.230Z,3.10
2018-02-08T16:16:12.757Z,3.20
2018-02-08T16:18:41.052Z,3.30
2018-02-08T16:21:08.571Z,3.30
2018-02-08T16:23:36.108Z,3.20
2018-02-08T16:26:03.625Z,3.20
2018-02-08T16:28:31.168Z,3.20
2018-02-08T16:30:59.480Z,3.30
2018-02-08T16:33:27.002Z,3.30
2018-02-08T16:35:55.397Z,3.20
2018-02-08T16:38:22.976Z,3.20
2018-02-08T16:40:50.544Z,3.10
2018-02-08T16:43:18.075Z,3.10
2018-02-08T16:45:45.599Z,3.10
2018-02-08T16:48:13.135Z,3.10
2018-02-08T16:50:40.666Z,3.10
2018-02-08T16:53:08.182Z,3.10
2018-02-08T16:55:35.683Z,3.00
2018-02-08T16:58:03.212Z,3.00
2018-02-08T17:03:06.137Z,2.90
2018-02-08T17:05:33.766Z,2.90
2018-02-08T17:08:02.066Z,2.90
2018-02-08T17:10:29.611Z,2.90
2018-02-08T17:13:15.041Z,3.00
2018-02-08T17:15:54.983Z,3.00
2018-02-08T17:18:24.131Z,2.90
2018-02-08T17:20:51.684Z,3.00
2018-02-08T17:23:22.280Z,2.90
2018-02-08T17:26:00.874Z,2.90
2018-02-08T17:31:05.777Z,2.90
2018-02-08T17:33:36.291Z,2.80
2018-02-08T17:36:07.432Z,2.90
2018-02-08T17:38:36.790Z,2.90
2018-02-08T17:41:05.474Z,2.90
2018-02-08T17:43:33.164Z,3.00
2018-02-08T17:46:03.130Z,2.90
2018-02-08T17:48:31.505Z,3.00
2018-02-08T17:50:59.834Z,2.90
2018-02-08T17:53:27.478Z,2.90
2018-02-08T17:55:57.765Z,2.80
2018-02-08T18:01:31.133Z,2.80
2018-02-08T18:06:37.702Z,2.80
2018-02-08T18:09:05.232Z,2.80
2018-02-08T18:11:47.051Z,2.70
2018-02-08T18:14:14.613Z,2.70
2018-02-08T18:16:42.185Z,2.60
2018-02-08T18:19:09.945Z,2.70
2018-02-08T18:21:37.618Z,2.70
2018-02-08T18:24:05.301Z,2.70
2018-02-08T18:26:32.972Z,2.60
2018-02-08T18:29:00.563Z,2.60
2018-02-08T18:31:28.213Z,2.60
2018-02-08T18:33:56.613Z,2.50
2018-02-08T18:36:24.216Z,2.50
2018-02-08T18:38:51.820Z,2.50
2018-02-08T18:41:20.254Z,2.60
2018-02-08T18:43:48.708Z,2.60
2018-02-08T18:46:23.829Z,2.60
2018-02-08T18:48:52.170Z,2.60
2018-02-08T18:51:19.767Z,2.60
2018-02-08T18:53:47.315Z,2.60
2018-02-08T18:56:15.609Z,2.60
2018-02-08T18:58:43.175Z,2.60
2018-02-08T19:03:44.562Z,2.60
2018-02-08T19:06:12.101Z,2.60
2018-02-08T19:08:39.622Z,2.50
2018-02-08T19:11:07.140Z,2.60
2018-02-08T19:13:34.694Z,2.50
2018-02-08T19:16:02.250Z,2.50
2018-02-08T19:18:29.773Z,2.60
2018-02-08T19:20:58.079Z,2.70
2018-02-08T19:23:25.605Z,2.70
2018-02-08T19:25:53.924Z,2.60
2018-02-08T19:28:21.479Z,2.60
2018-02-08T19:30:49.021Z,2.60
2018-02-08T19:33:16.546Z,2.50
2018-02-08T19:35:44.113Z,2.50
2018-02-08T19:38:12.425Z,2.40
2018-02-08T19:40:39.998Z,2.30
2018-02-08T19:43:07.555Z,2.40
2018-02-08T19:45:35.157Z,2.40
2018-02-08T19:48:02.689Z,2.30
2018-02-08T19:50:30.226Z,2.30
2018-02-08T19:52:57.806Z,2.30
2018-02-08T19:55:25.361Z,2.30
2018-02-08T19:57:52.905Z,2.40
2018-02-08T20:00:20.453Z,2.30
2018-02-08T20:02:48.015Z,2.30
2018-02-08T20:05:15.570Z,2.30
2018-02-08T20:07:43.870Z,2.40
2018-02-08T20:10:11.671Z,2.30
2018-02-08T20:12:39.233Z,2.30
2018-02-08T20:15:06.808Z,2.30
2018-02-08T20:17:34.337Z,2.30
2018-02-08T20:20:01.899Z,2.30
2018-02-08T20:22:29.461Z,2.30
2018-02-08T20:24:57.025Z,2.30
2018-02-08T20:27:24.554Z,2.30
2018-02-08T20:29:52.103Z,2.20
2018-02-08T20:32:19.630Z,2.20
2018-02-08T20:34:47.921Z,2.20
2018-02-08T20:37:16.256Z,2.10
2018-02-08T20:39:43.790Z,2.10
2018-02-08T20:42:17.070Z,2.10
2018-02-08T20:44:44.615Z,2.00
2018-02-08T20:49:52.045Z,2.10
2018-02-08T20:52:19.576Z,2.10
2018-02-08T20:54:47.877Z,2.20
2018-02-08T20:57:15.441Z,2.20
2018-02-08T20:59:43.019Z,2.10
2018-02-08T21:02:10.617Z,2.10
2018-02-08T21:04:38.978Z,2.00
2018-02-08T21:07:07.492Z,2.00
2018-02-08T21:09:35.913Z,2.00
2018-02-08T21:12:03.458Z,2.00
2018-02-08T21:14:31.033Z,2.00
2018-02-08T21:17:09.423Z,2.00
2018-02-08T21:19:37.842Z,2.00
2018-02-08T21:22:05.430Z,2.00
2018-02-08T21:24:33.744Z,2.10
2018-02-08T21:27:01.264Z,2.00
2018-02-08T21:29:29.003Z,2.10
2018-02-08T21:31:56.548Z,2.10
2018-02-08T21:34:24.109Z,2.10
2018-02-08T21:36:51.643Z,2.00
2018-02-08T21:39:19.227Z,2.00
2018-02-08T21:41:46.785Z,2.00
2018-02-08T21:44:14.352Z,1.90
2018-02-08T21:46:41.907Z,1.90
2018-02-08T21:49:09.412Z,1.90
2018-02-08T21:51:37.758Z,1.80
2018-02-08T21:54:06.061Z,1.80
2018-02-08T21:56:33.646Z,1.80
2018-02-08T21:59:01.176Z,1.80
2018-02-08T22:01:28.714Z,1.70
2018-02-08T22:03:56.258Z,1.80
2018-02-08T22:06:23.829Z,1.70
2018-02-08T22:08:51.373Z,1.80
2018-02-08T22:11:18.929Z,1.70
2018-02-08T22:13:46.445Z,1.70
2018-02-08T22:16:14.757Z,1.90
2018-02-08T22:18:42.280Z,1.80
2018-02-08T22:21:10.591Z,1.70
2018-02-08T22:23:38.114Z,1.70
2018-02-08T22:26:05.652Z,1.70
2018-02-08T22:28:35.965Z,1.70
2018-02-08T22:31:03.512Z,1.70
2018-02-08T22:33:31.033Z,1.80
2018-02-08T22:36:36.178Z,1.80
2018-02-08T22:39:07.564Z,1.70
2018-02-08T22:41:35.152Z,1.70
2018-02-08T22:44:02.932Z,1.70
2018-02-08T22:46:31.221Z,1.50
2018-02-08T22:48:59.540Z,1.60
